sensor_id;sensor_type;location;lat;lon;timestamp;pressure;altitude;pressure_sealevel;temperature;humidity
9899;BME280;4988;49.238;6.698;2023-08-24T00:00:15;99250.28;;;20.62;93.07
9899;BME280;4988;49.238;6.698;2023-08-24T00:02:40;99249.09;;;20.54;93.25
9899;BME280;4988;49.238;6.698;2023-08-24T00:05:06;99258.19;;;20.53;93.11
9899;BME280;4988;49.238;6.698;2023-08-24T00:07:31;99258.19;;;20.53;93.69
9899;BME280;4988;49.238;6.698;2023-08-24T00:09:58;99264.19;;;20.57;93.90
9899;BME280;4988;49.238;6.698;2023-08-24T00:12:23;99269.34;;;20.60;93.29
9899;BME280;4988;49.238;6.698;2023-08-24T00:14:48;99275.59;;;20.61;93.96
9899;BME280;4988;49.238;6.698;2023-08-24T00:17:14;99284.22;;;20.66;93.03
9899;BME280;4988;49.238;6.698;2023-08-24T00:19:40;99279.31;;;20.60;92.87
9899;BME280;4988;49.238;6.698;2023-08-24T00:22:05;99279.13;;;20.51;93.02
9899;BME280;4988;49.238;6.698;2023-08-24T00:24:30;99288.94;;;20.20;95.02
9899;BME280;4988;49.238;6.698;2023-08-24T00:26:56;99292.81;;;20.06;95.36
9899;BME280;4988;49.238;6.698;2023-08-24T00:29:21;99290.66;;;19.88;97.87
9899;BME280;4988;49.238;6.698;2023-08-24T00:31:47;99289.56;;;19.68;99.33
9899;BME280;4988;49.238;6.698;2023-08-24T00:34:12;99287.88;;;19.44;100.00
9899;BME280;4988;49.238;6.698;2023-08-24T00:36:38;99294.41;;;19.19;100.00
9899;BME280;4988;49.238;6.698;2023-08-24T00:39:03;99294.84;;;19.02;100.00
9899;BME280;4988;49.238;6.698;2023-08-24T00:41:28;99300.72;;;18.95;100.00
9899;BME280;4988;49.238;6.698;2023-08-24T00:43:53;99294.22;;;18.98;100.00
9899;BME280;4988;49.238;6.698;2023-08-24T00:46:19;99275.88;;;19.15;100.00
9899;BME280;4988;49.238;6.698;2023-08-24T00:48:44;99275.72;;;19.27;100.00
9899;BME280;4988;49.238;6.698;2023-08-24T00:51:10;99269.44;;;19.50;100.00
9899;BME280;4988;49.238;6.698;2023-08-24T00:53:36;99261.34;;;19.50;100.00
9899;BME280;4988;49.238;6.698;2023-08-24T00:56:03;99276.22;;;19.55;100.00
9899;BME280;4988;49.238;6.698;2023-08-24T00:58:28;99271.28;;;19.60;100.00
9899;BME280;4988;49.238;6.698;2023-08-24T01:00:56;99273.94;;;19.72;100.00
9899;BME280;4988;49.238;6.698;2023-08-24T01:03:22;99270.50;;;19.81;100.00
9899;BME280;4988;49.238;6.698;2023-08-24T01:05:48;99273.47;;;19.89;99.90
9899;BME280;4988;49.238;6.698;2023-08-24T01:08:14;99269.66;;;19.92;100.00
9899;BME280;4988;49.238;6.698;2023-08-24T01:13:33;99257.72;;;19.95;100.00
9899;BME280;4988;49.238;6.698;2023-08-24T01:16:08;99258.19;;;20.00;100.00
9899;BME280;4988;49.238;6.698;2023-08-24T01:18:35;99266.78;;;20.05;99.90
9899;BME280;4988;49.238;6.698;2023-08-24T01:21:01;99249.31;;;20.09;99.37
9899;BME280;4988;49.238;6.698;2023-08-24T01:23:33;99233.16;;;20.19;98.40
9899;BME280;4988;49.238;6.698;2023-08-24T01:26:16;99222.78;;;20.14;98.20
9899;BME280;4988;49.238;6.698;2023-08-24T01:28:43;99208.97;;;20.17;97.85
9899;BME280;4988;49.238;6.698;2023-08-24T01:31:09;99209.56;;;20.21;97.86
9899;BME280;4988;49.238;6.698;2023-08-24T01:33:34;99195.69;;;20.25;97.33
9899;BME280;4988;49.238;6.698;2023-08-24T01:36:00;99177.34;;;20.29;96.22
9899;BME280;4988;49.238;6.698;2023-08-24T01:38:26;99146.19;;;20.35;95.64
9899;BME280;4988;49.238;6.698;2023-08-24T01:40:59;99107.75;;;20.31;92.86
9899;BME280;4988;49.238;6.698;2023-08-24T01:43:31;99092.81;;;20.27;91.35
9899;BME280;4988;49.238;6.698;2023-08-24T01:46:03;99083.44;;;20.31;90.58
9899;BME280;4988;49.238;6.698;2023-08-24T01:48:29;99085.56;;;20.28;90.35
9899;BME280;4988;49.238;6.698;2023-08-24T01:50:57;99084.84;;;20.25;90.15
9899;BME280;4988;49.238;6.698;2023-08-24T01:53:22;99082.38;;;20.22;90.32
9899;BME280;4988;49.238;6.698;2023-08-24T01:55:47;99076.28;;;20.20;91.18
9899;BME280;4988;49.238;6.698;2023-08-24T01:58:13;99086.38;;;20.18;91.80
9899;BME280;4988;49.238;6.698;2023-08-24T02:00:38;99090.34;;;20.14;92.44
9899;BME280;4988;49.238;6.698;2023-08-24T02:03:04;99093.28;;;20.11;92.02
9899;BME280;4988;49.238;6.698;2023-08-24T02:05:29;99111.97;;;20.14;92.71
9899;BME280;4988;49.238;6.698;2023-08-24T02:07:55;99115.34;;;20.16;93.03
9899;BME280;4988;49.238;6.698;2023-08-24T02:10:20;99111.44;;;20.20;92.99
9899;BME280;4988;49.238;6.698;2023-08-24T02:12:46;99103.75;;;20.25;93.23
9899;BME280;4988;49.238;6.698;2023-08-24T02:15:11;99096.84;;;20.33;92.90
9899;BME280;4988;49.238;6.698;2023-08-24T02:17:36;99093.25;;;20.32;92.55
9899;BME280;4988;49.238;6.698;2023-08-24T02:20:02;99091.97;;;20.27;93.05
9899;BME280;4988;49.238;6.698;2023-08-24T02:22:29;99083.56;;;20.30;92.76
9899;BME280;4988;49.238;6.698;2023-08-24T02:24:55;99091.69;;;20.30;92.69
9899;BME280;4988;49.238;6.698;2023-08-24T02:27:21;99085.16;;;20.32;92.45
9899;BME280;4988;49.238;6.698;2023-08-24T02:29:46;99088.44;;;20.36;92.51
9899;BME280;4988;49.238;6.698;2023-08-24T02:32:11;99088.59;;;20.34;92.31
9899;BME280;4988;49.238;6.698;2023-08-24T02:34:37;99091.88;;;20.38;92.91
9899;BME280;4988;49.238;6.698;2023-08-24T02:37:02;99095.56;;;20.37;92.60
9899;BME280;4988;49.238;6.698;2023-08-24T02:39:27;99099.25;;;20.36;92.55
9899;BME280;4988;49.238;6.698;2023-08-24T02:41:52;99094.13;;;20.33;92.79
9899;BME280;4988;49.238;6.698;2023-08-24T02:44:18;99103.47;;;20.29;93.25
9899;BME280;4988;49.238;6.698;2023-08-24T02:46:48;99103.47;;;20.29;92.84
9899;BME280;4988;49.238;6.698;2023-08-24T02:49:13;99103.47;;;20.29;92.37
9899;BME280;4988;49.238;6.698;2023-08-24T02:51:39;99114.28;;;20.29;92.45
9899;BME280;4988;49.238;6.698;2023-08-24T02:54:04;99102.88;;;20.25;92.60
9899;BME280;4988;49.238;6.698;2023-08-24T02:56:30;99104.88;;;20.23;92.91
9899;BME280;4988;49.238;6.698;2023-08-24T02:58:55;99104.63;;;20.05;94.46
9899;BME280;4988;49.238;6.698;2023-08-24T03:01:20;99098.19;;;19.96;95.21
9899;BME280;4988;49.238;6.698;2023-08-24T03:03:46;99100.81;;;19.86;95.98
9899;BME280;4988;49.238;6.698;2023-08-24T03:06:11;99101.22;;;19.70;97.44
9899;BME280;4988;49.238;6.698;2023-08-24T03:08:37;99104.03;;;19.48;99.54
9899;BME280;4988;49.238;6.698;2023-08-24T03:11:02;99092.78;;;19.31;100.00
9899;BME280;4988;49.238;6.698;2023-08-24T03:13:28;99093.41;;;19.35;100.00
9899;BME280;4988;49.238;6.698;2023-08-24T03:15:54;99089.34;;;19.40;100.00
9899;BME280;4988;49.238;6.698;2023-08-24T03:18:20;99089.94;;;19.44;100.00
9899;BME280;4988;49.238;6.698;2023-08-24T03:20:47;99091.00;;;19.53;100.00
9899;BME280;4988;49.238;6.698;2023-08-24T03:23:14;99081.41;;;19.60;99.07
9899;BME280;4988;49.238;6.698;2023-08-24T03:25:41;99080.28;;;19.63;98.55
9899;BME280;4988;49.238;6.698;2023-08-24T03:28:08;99079.31;;;19.64;98.68
9899;BME280;4988;49.238;6.698;2023-08-24T03:30:38;99076.47;;;19.65;99.22
9899;BME280;4988;49.238;6.698;2023-08-24T03:33:04;99080.75;;;19.68;99.06
9899;BME280;4988;49.238;6.698;2023-08-24T03:35:33;99081.47;;;19.70;98.42
9899;BME280;4988;49.238;6.698;2023-08-24T03:37:59;99076.06;;;19.70;98.34
9899;BME280;4988;49.238;6.698;2023-08-24T03:40:25;99082.63;;;19.77;97.78
9899;BME280;4988;49.238;6.698;2023-08-24T03:42:50;99080.28;;;19.63;98.11
9899;BME280;4988;49.238;6.698;2023-08-24T03:45:16;99079.00;;;19.45;100.00
9899;BME280;4988;49.238;6.698;2023-08-24T03:47:41;99075.56;;;19.43;99.93
9899;BME280;4988;49.238;6.698;2023-08-24T03:50:07;99084.78;;;19.41;100.00
9899;BME280;4988;49.238;6.698;2023-08-24T03:52:32;99090.75;;;19.23;100.00
9899;BME280;4988;49.238;6.698;2023-08-24T03:54:58;99091.03;;;19.09;100.00
9899;BME280;4988;49.238;6.698;2023-08-24T03:57:23;99100.72;;;19.00;100.00
9899;BME280;4988;49.238;6.698;2023-08-24T03:59:49;99115.31;;;18.86;100.00
9899;BME280;4988;49.238;6.698;2023-08-24T04:02:14;99132.84;;;18.69;100.00
9899;BME280;4988;49.238;6.698;2023-08-24T04:04:40;99152.56;;;18.70;100.00
9899;BME280;4988;49.238;6.698;2023-08-24T04:07:05;99179.06;;;18.64;100.00
9899;BME280;4988;49.238;6.698;2023-08-24T04:09:30;99192.66;;;18.52;100.00
9899;BME280;4988;49.238;6.698;2023-08-24T04:11:56;99220.09;;;18.45;100.00
9899;BME280;4988;49.238;6.698;2023-08-24T04:14:21;99223.63;;;18.35;100.00
9899;BME280;4988;49.238;6.698;2023-08-24T04:16:46;99238.56;;;18.39;100.00
9899;BME280;4988;49.238;6.698;2023-08-24T04:19:12;99251.09;;;18.51;100.00
9899;BME280;4988;49.238;6.698;2023-08-24T04:21:38;99254.34;;;18.68;100.00
9899;BME280;4988;49.238;6.698;2023-08-24T04:24:03;99271.00;;;18.73;100.00
9899;BME280;4988;49.238;6.698;2023-08-24T04:26:29;99281.91;;;18.71;100.00
9899;BME280;4988;49.238;6.698;2023-08-24T04:28:54;99272.00;;;18.83;100.00
9899;BME280;4988;49.238;6.698;2023-08-24T04:31:19;99261.84;;;18.98;100.00
9899;BME280;4988;49.238;6.698;2023-08-24T04:33:45;99256.00;;;19.16;100.00
9899;BME280;4988;49.238;6.698;2023-08-24T04:36:10;99239.94;;;19.25;100.00
9899;BME280;4988;49.238;6.698;2023-08-24T04:38:35;99211.66;;;19.41;99.72
9899;BME280;4988;49.238;6.698;2023-08-24T04:41:01;99207.00;;;19.43;99.68
9899;BME280;4988;49.238;6.698;2023-08-24T04:43:26;99206.03;;;19.44;100.00
9899;BME280;4988;49.238;6.698;2023-08-24T04:45:54;99205.75;;;19.47;99.88
9899;BME280;4988;49.238;6.698;2023-08-24T04:48:21;99194.94;;;19.58;97.26
9899;BME280;4988;49.238;6.698;2023-08-24T04:50:46;99180.66;;;19.68;95.19
9899;BME280;4988;49.238;6.698;2023-08-24T04:53:14;99168.97;;;19.79;92.49
9899;BME280;4988;49.238;6.698;2023-08-24T04:55:40;99160.53;;;19.83;90.13
9899;BME280;4988;49.238;6.698;2023-08-24T04:58:07;99142.78;;;19.90;89.18
9899;BME280;4988;49.238;6.698;2023-08-24T05:00:33;99143.50;;;19.92;87.50
9899;BME280;4988;49.238;6.698;2023-08-24T05:02:59;99136.38;;;19.91;86.90
9899;BME280;4988;49.238;6.698;2023-08-24T05:05:24;99128.50;;;20.00;86.15
9899;BME280;4988;49.238;6.698;2023-08-24T05:07:50;99133.09;;;20.09;85.47
9899;BME280;4988;49.238;6.698;2023-08-24T05:10:15;99135.78;;;20.09;85.75
9899;BME280;4988;49.238;6.698;2023-08-24T05:12:40;99132.09;;;20.10;85.77
9899;BME280;4988;49.238;6.698;2023-08-24T05:15:06;99114.91;;;20.11;85.71
9899;BME280;4988;49.238;6.698;2023-08-24T05:17:31;99108.78;;;20.09;85.37
9899;BME280;4988;49.238;6.698;2023-08-24T05:19:58;99111.22;;;20.12;85.19
9899;BME280;4988;49.238;6.698;2023-08-24T05:22:23;99107.69;;;20.12;85.05
9899;BME280;4988;49.238;6.698;2023-08-24T05:24:49;99107.25;;;20.16;84.71
9899;BME280;4988;49.238;6.698;2023-08-24T05:27:14;99108.97;;;20.17;85.13
9899;BME280;4988;49.238;6.698;2023-08-24T05:29:40;99104.28;;;20.19;85.73
9899;BME280;4988;49.238;6.698;2023-08-24T05:32:06;99102.59;;;20.18;86.05
9899;BME280;4988;49.238;6.698;2023-08-24T05:34:31;99110.59;;;20.30;84.84
9899;BME280;4988;49.238;6.698;2023-08-24T05:36:57;99108.63;;;20.32;84.44
9899;BME280;4988;49.238;6.698;2023-08-24T05:39:22;99113.75;;;20.35;85.02
9899;BME280;4988;49.238;6.698;2023-08-24T05:41:50;99118.03;;;20.37;83.82
9899;BME280;4988;49.238;6.698;2023-08-24T05:44:16;99126.75;;;20.41;83.27
9899;BME280;4988;49.238;6.698;2023-08-24T05:46:42;99131.16;;;20.42;82.86
9899;BME280;4988;49.238;6.698;2023-08-24T05:49:07;99136.03;;;20.48;82.70
9899;BME280;4988;49.238;6.698;2023-08-24T05:51:32;99138.78;;;20.58;81.70
9899;BME280;4988;49.238;6.698;2023-08-24T05:53:58;99135.97;;;20.60;81.31
9899;BME280;4988;49.238;6.698;2023-08-24T05:56:23;99142.06;;;20.62;80.37
9899;BME280;4988;49.238;6.698;2023-08-24T05:58:49;99143.72;;;20.74;80.03
9899;BME280;4988;49.238;6.698;2023-08-24T06:01:14;99144.75;;;20.83;78.43
9899;BME280;4988;49.238;6.698;2023-08-24T06:03:39;99145.63;;;20.83;78.26
9899;BME280;4988;49.238;6.698;2023-08-24T06:06:05;99134.97;;;20.92;77.75
9899;BME280;4988;49.238;6.698;2023-08-24T06:08:31;99146.41;;;21.05;76.40
9899;BME280;4988;49.238;6.698;2023-08-24T06:10:57;99157.69;;;21.10;75.45
9899;BME280;4988;49.238;6.698;2023-08-24T06:13:23;99165.97;;;21.18;74.65
9899;BME280;4988;49.238;6.698;2023-08-24T06:15:48;99163.00;;;21.21;74.32
9899;BME280;4988;49.238;6.698;2023-08-24T06:18:13;99165.56;;;21.33;75.17
9899;BME280;4988;49.238;6.698;2023-08-24T06:20:39;99167.72;;;21.39;74.09
9899;BME280;4988;49.238;6.698;2023-08-24T06:23:04;99165.03;;;21.49;73.10
9899;BME280;4988;49.238;6.698;2023-08-24T06:25:30;99185.31;;;21.55;72.34
9899;BME280;4988;49.238;6.698;2023-08-24T06:27:57;99188.19;;;21.63;72.63
9899;BME280;4988;49.238;6.698;2023-08-24T06:30:24;99174.94;;;21.60;72.74
9899;BME280;4988;49.238;6.698;2023-08-24T06:32:49;99164.50;;;21.65;73.17
9899;BME280;4988;49.238;6.698;2023-08-24T06:35:18;99166.09;;;21.77;73.27
9899;BME280;4988;49.238;6.698;2023-08-24T06:38:04;99166.81;;;21.79;73.54
9899;BME280;4988;49.238;6.698;2023-08-24T06:40:30;99172.34;;;21.88;72.79
9899;BME280;4988;49.238;6.698;2023-08-24T06:42:59;99180.78;;;21.94;71.93
9899;BME280;4988;49.238;6.698;2023-08-24T06:45:45;99174.94;;;21.99;71.08
9899;BME280;4988;49.238;6.698;2023-08-24T06:48:24;99170.94;;;22.03;71.20
9899;BME280;4988;49.238;6.698;2023-08-24T06:51:03;99163.22;;;22.08;71.49
9899;BME280;4988;49.238;6.698;2023-08-24T06:53:36;99151.53;;;22.17;71.58
9899;BME280;4988;49.238;6.698;2023-08-24T06:56:01;99155.50;;;22.23;71.07
9899;BME280;4988;49.238;6.698;2023-08-24T06:58:27;99154.22;;;22.27;71.60
9899;BME280;4988;49.238;6.698;2023-08-24T07:00:52;99151.03;;;22.32;70.68
9899;BME280;4988;49.238;6.698;2023-08-24T07:03:18;99141.75;;;22.44;69.38
9899;BME280;4988;49.238;6.698;2023-08-24T07:05:44;99141.91;;;22.53;69.91
9899;BME280;4988;49.238;6.698;2023-08-24T07:08:10;99126.13;;;22.66;70.27
9899;BME280;4988;49.238;6.698;2023-08-24T07:10:35;99120.84;;;22.74;69.63
9899;BME280;4988;49.238;6.698;2023-08-24T07:13:07;99116.53;;;22.81;69.62
9899;BME280;4988;49.238;6.698;2023-08-24T07:15:37;99111.44;;;22.96;68.29
9899;BME280;4988;49.238;6.698;2023-08-24T07:18:04;99115.50;;;23.10;67.14
9899;BME280;4988;49.238;6.698;2023-08-24T07:20:34;99119.34;;;23.18;67.38
9899;BME280;4988;49.238;6.698;2023-08-24T07:22:59;99106.25;;;23.31;66.71
9899;BME280;4988;49.238;6.698;2023-08-24T07:25:25;99105.00;;;23.43;66.03
9899;BME280;4988;49.238;6.698;2023-08-24T07:27:51;99087.63;;;23.54;65.14
9899;BME280;4988;49.238;6.698;2023-08-24T07:30:17;99081.63;;;23.69;64.79
9899;BME280;4988;49.238;6.698;2023-08-24T07:32:42;99079.34;;;23.82;63.75
9899;BME280;4988;49.238;6.698;2023-08-24T07:35:08;99079.16;;;23.93;63.51
9899;BME280;4988;49.238;6.698;2023-08-24T07:37:33;99068.84;;;24.05;63.18
9899;BME280;4988;49.238;6.698;2023-08-24T07:39:58;99063.47;;;24.14;64.00
9899;BME280;4988;49.238;6.698;2023-08-24T07:42:24;99064.22;;;24.24;64.64
9899;BME280;4988;49.238;6.698;2023-08-24T07:44:49;99058.19;;;24.38;64.91
9899;BME280;4988;49.238;6.698;2023-08-24T07:47:15;99063.69;;;24.55;63.98
9899;BME280;4988;49.238;6.698;2023-08-24T07:49:40;99058.13;;;24.65;63.40
9899;BME280;4988;49.238;6.698;2023-08-24T07:52:10;99061.44;;;24.77;62.92
9899;BME280;4988;49.238;6.698;2023-08-24T07:54:36;99064.88;;;24.87;63.04
9899;BME280;4988;49.238;6.698;2023-08-24T07:57:01;99062.72;;;24.99;63.01
9899;BME280;4988;49.238;6.698;2023-08-24T07:59:26;99057.13;;;25.09;62.52
9899;BME280;4988;49.238;6.698;2023-08-24T08:01:52;99063.25;;;25.19;62.21
9899;BME280;4988;49.238;6.698;2023-08-24T08:04:17;99067.19;;;25.25;62.03
9899;BME280;4988;49.238;6.698;2023-08-24T08:06:42;99057.88;;;25.35;62.24
9899;BME280;4988;49.238;6.698;2023-08-24T08:09:08;99058.41;;;25.47;60.97
9899;BME280;4988;49.238;6.698;2023-08-24T08:11:33;99047.84;;;25.61;61.96
9899;BME280;4988;49.238;6.698;2023-08-24T08:14:00;99042.91;;;25.73;60.85
9899;BME280;4988;49.238;6.698;2023-08-24T08:16:25;99041.03;;;25.81;60.85
9899;BME280;4988;49.238;6.698;2023-08-24T08:18:50;99040.84;;;25.91;60.42
9899;BME280;4988;49.238;6.698;2023-08-24T08:21:16;99038.63;;;26.03;58.76
9899;BME280;4988;49.238;6.698;2023-08-24T08:23:45;99037.25;;;26.15;58.32
9899;BME280;4988;49.238;6.698;2023-08-24T08:26:11;99042.16;;;26.28;58.24
9899;BME280;4988;49.238;6.698;2023-08-24T08:28:36;99038.22;;;26.39;57.04
9899;BME280;4988;49.238;6.698;2023-08-24T08:31:01;99029.13;;;26.47;56.58
9899;BME280;4988;49.238;6.698;2023-08-24T08:33:29;99024.00;;;26.52;55.96
9899;BME280;4988;49.238;6.698;2023-08-24T08:35:55;99030.44;;;26.59;56.30
9899;BME280;4988;49.238;6.698;2023-08-24T08:38:20;99030.41;;;26.68;55.25
9899;BME280;4988;49.238;6.698;2023-08-24T08:40:50;99028.19;;;26.79;55.78
9899;BME280;4988;49.238;6.698;2023-08-24T08:43:16;99025.06;;;26.91;55.55
9899;BME280;4988;49.238;6.698;2023-08-24T08:45:41;99020.03;;;27.03;55.78
9899;BME280;4988;49.238;6.698;2023-08-24T08:48:08;99021.31;;;27.15;55.11
9899;BME280;4988;49.238;6.698;2023-08-24T08:50:34;99003.81;;;27.24;53.19
9899;BME280;4988;49.238;6.698;2023-08-24T08:53:00;99004.25;;;27.36;53.49
9899;BME280;4988;49.238;6.698;2023-08-24T08:55:26;99002.34;;;27.45;53.86
9899;BME280;4988;49.238;6.698;2023-08-24T08:57:53;98998.00;;;27.51;51.46
9899;BME280;4988;49.238;6.698;2023-08-24T09:00:23;98980.00;;;27.56;50.72
9899;BME280;4988;49.238;6.698;2023-08-24T09:02:51;98974.47;;;27.65;50.69
9899;BME280;4988;49.238;6.698;2023-08-24T09:05:17;98970.88;;;27.64;49.40
9899;BME280;4988;49.238;6.698;2023-08-24T09:07:43;98973.53;;;27.72;50.88
9899;BME280;4988;49.238;6.698;2023-08-24T09:10:09;98964.88;;;27.84;50.38
9899;BME280;4988;49.238;6.698;2023-08-24T09:12:35;98961.69;;;27.95;50.19
9899;BME280;4988;49.238;6.698;2023-08-24T09:15:04;98954.22;;;28.04;49.33
9899;BME280;4988;49.238;6.698;2023-08-24T09:17:31;98958.97;;;28.10;50.39
9899;BME280;4988;49.238;6.698;2023-08-24T09:20:05;98950.28;;;28.21;51.68
9899;BME280;4988;49.238;6.698;2023-08-24T09:22:38;98944.13;;;28.34;49.66
9899;BME280;4988;49.238;6.698;2023-08-24T09:25:08;98932.25;;;28.42;49.11
9899;BME280;4988;49.238;6.698;2023-08-24T09:27:34;98931.06;;;28.51;49.66
9899;BME280;4988;49.238;6.698;2023-08-24T09:29:59;98937.47;;;28.59;49.24
9899;BME280;4988;49.238;6.698;2023-08-24T09:32:29;98928.59;;;28.56;47.65
9899;BME280;4988;49.238;6.698;2023-08-24T09:35:02;98909.88;;;28.60;48.59
9899;BME280;4988;49.238;6.698;2023-08-24T09:37:32;98913.38;;;28.69;48.83
9899;BME280;4988;49.238;6.698;2023-08-24T09:40:03;98900.44;;;28.78;48.09
9899;BME280;4988;49.238;6.698;2023-08-24T09:42:40;98905.56;;;28.87;48.96
9899;BME280;4988;49.238;6.698;2023-08-24T09:45:08;98904.88;;;29.00;48.64
9899;BME280;4988;49.238;6.698;2023-08-24T09:47:36;98904.13;;;29.13;48.81
9899;BME280;4988;49.238;6.698;2023-08-24T09:50:03;98900.78;;;29.18;48.18
9899;BME280;4988;49.238;6.698;2023-08-24T09:52:31;98892.38;;;29.19;47.55
9899;BME280;4988;49.238;6.698;2023-08-24T09:55:03;98891.59;;;29.26;48.91
9899;BME280;4988;49.238;6.698;2023-08-24T09:57:42;98901.03;;;29.23;47.29
9899;BME280;4988;49.238;6.698;2023-08-24T10:00:09;98897.38;;;29.31;47.88
9899;BME280;4988;49.238;6.698;2023-08-24T10:02:50;98891.09;;;29.37;48.95
9899;BME280;4988;49.238;6.698;2023-08-24T10:05:20;98883.34;;;29.47;49.84
9899;BME280;4988;49.238;6.698;2023-08-24T10:07:53;98881.97;;;29.65;50.66
9899;BME280;4988;49.238;6.698;2023-08-24T10:10:20;98888.59;;;29.77;49.68
9899;BME280;4988;49.238;6.698;2023-08-24T10:12:50;98880.66;;;29.89;49.56
9899;BME280;4988;49.238;6.698;2023-08-24T10:15:17;98885.81;;;29.99;50.00
9899;BME280;4988;49.238;6.698;2023-08-24T10:17:44;98886.69;;;30.06;49.59
9899;BME280;4988;49.238;6.698;2023-08-24T10:20:10;98887.53;;;30.07;49.81
9899;BME280;4988;49.238;6.698;2023-08-24T10:22:37;98894.31;;;30.11;48.30
9899;BME280;4988;49.238;6.698;2023-08-24T10:25:03;98889.66;;;30.11;48.54
9899;BME280;4988;49.238;6.698;2023-08-24T10:27:29;98885.25;;;30.17;48.32
9899;BME280;4988;49.238;6.698;2023-08-24T10:29:55;98878.75;;;30.25;49.58
9899;BME280;4988;49.238;6.698;2023-08-24T10:32:22;98877.09;;;30.37;49.81
9899;BME280;4988;49.238;6.698;2023-08-24T10:34:49;98878.13;;;30.36;48.85
9899;BME280;4988;49.238;6.698;2023-08-24T10:37:15;98877.91;;;30.31;48.73
9899;BME280;4988;49.238;6.698;2023-08-24T10:39:45;98880.00;;;30.22;49.02
9899;BME280;4988;49.238;6.698;2023-08-24T10:42:12;98876.16;;;30.16;49.55
9899;BME280;4988;49.238;6.698;2023-08-24T10:44:38;98864.75;;;30.13;50.18
9899;BME280;4988;49.238;6.698;2023-08-24T10:49:33;98846.97;;;30.02;50.24
9899;BME280;4988;49.238;6.698;2023-08-24T10:52:35;98839.31;;;29.91;52.42
9899;BME280;4988;49.238;6.698;2023-08-24T10:55:21;98831.84;;;29.84;52.13
9899;BME280;4988;49.238;6.698;2023-08-24T10:57:55;98823.00;;;29.82;52.30
9899;BME280;4988;49.238;6.698;2023-08-24T11:00:21;98820.66;;;29.79;51.96
9899;BME280;4988;49.238;6.698;2023-08-24T11:02:49;98813.47;;;29.78;51.99
9899;BME280;4988;49.238;6.698;2023-08-24T11:07:58;98817.31;;;29.84;52.97
9899;BME280;4988;49.238;6.698;2023-08-24T11:10:26;98824.53;;;29.92;52.89
9899;BME280;4988;49.238;6.698;2023-08-24T11:20:51;98824.88;;;30.24;52.16
9899;BME280;4988;49.238;6.698;2023-08-24T11:23:17;98811.13;;;30.24;52.58
9899;BME280;4988;49.238;6.698;2023-08-24T11:25:43;98803.56;;;30.26;52.26
9899;BME280;4988;49.238;6.698;2023-08-24T11:28:08;98788.78;;;30.27;51.51
9899;BME280;4988;49.238;6.698;2023-08-24T11:30:34;98778.19;;;30.24;51.74
9899;BME280;4988;49.238;6.698;2023-08-24T11:33:00;98771.66;;;30.25;51.82
9899;BME280;4988;49.238;6.698;2023-08-24T11:35:26;98761.72;;;30.24;52.15
9899;BME280;4988;49.238;6.698;2023-08-24T11:37:55;98764.28;;;30.32;52.02
9899;BME280;4988;49.238;6.698;2023-08-24T11:40:22;98758.81;;;30.45;52.15
9899;BME280;4988;49.238;6.698;2023-08-24T11:42:56;98756.50;;;30.69;50.25
9899;BME280;4988;49.238;6.698;2023-08-24T11:45:22;98765.59;;;30.90;50.44
9899;BME280;4988;49.238;6.698;2023-08-24T11:47:48;98761.16;;;31.09;49.41
9899;BME280;4988;49.238;6.698;2023-08-24T11:50:14;98762.22;;;31.15;49.50
9899;BME280;4988;49.238;6.698;2023-08-24T11:52:43;98771.91;;;31.24;49.43
9899;BME280;4988;49.238;6.698;2023-08-24T11:55:10;98787.63;;;31.17;49.67
9899;BME280;4988;49.238;6.698;2023-08-24T11:57:38;98822.69;;;30.88;48.32
9899;BME280;4988;49.238;6.698;2023-08-24T12:00:04;98855.84;;;30.66;48.42
9899;BME280;4988;49.238;6.698;2023-08-24T12:02:30;98882.19;;;30.40;49.26
9899;BME280;4988;49.238;6.698;2023-08-24T12:04:57;98889.31;;;30.28;49.07
9899;BME280;4988;49.238;6.698;2023-08-24T12:07:22;98897.50;;;30.14;49.25
9899;BME280;4988;49.238;6.698;2023-08-24T12:09:48;98885.19;;;30.04;49.40
9899;BME280;4988;49.238;6.698;2023-08-24T12:12:18;98860.78;;;29.87;51.30
9899;BME280;4988;49.238;6.698;2023-08-24T12:14:48;98843.50;;;29.87;52.79
9899;BME280;4988;49.238;6.698;2023-08-24T12:17:15;98866.28;;;29.87;53.43
9899;BME280;4988;49.238;6.698;2023-08-24T12:19:45;98872.63;;;29.88;54.81
9899;BME280;4988;49.238;6.698;2023-08-24T12:22:17;98863.19;;;29.97;56.02
9899;BME280;4988;49.238;6.698;2023-08-24T12:24:45;98871.47;;;30.04;55.03
9899;BME280;4988;49.238;6.698;2023-08-24T12:27:17;98857.53;;;30.05;53.28
9899;BME280;4988;49.238;6.698;2023-08-24T12:29:45;98860.66;;;29.95;52.63
9899;BME280;4988;49.238;6.698;2023-08-24T12:32:10;98850.03;;;29.85;53.67
9899;BME280;4988;49.238;6.698;2023-08-24T12:34:36;98835.19;;;29.73;53.45
9899;BME280;4988;49.238;6.698;2023-08-24T12:37:01;98821.88;;;29.70;53.64
9899;BME280;4988;49.238;6.698;2023-08-24T12:39:26;98815.06;;;29.59;53.60
9899;BME280;4988;49.238;6.698;2023-08-24T12:41:52;98804.53;;;29.63;53.47
9899;BME280;4988;49.238;6.698;2023-08-24T12:44:17;98800.69;;;29.57;54.35
9899;BME280;4988;49.238;6.698;2023-08-24T12:46:42;98811.19;;;29.47;54.53
9899;BME280;4988;49.238;6.698;2023-08-24T12:49:08;98819.41;;;29.18;54.28
9899;BME280;4988;49.238;6.698;2023-08-24T12:51:33;98839.47;;;28.97;54.99
9899;BME280;4988;49.238;6.698;2023-08-24T12:53:58;98866.44;;;28.72;55.46
9899;BME280;4988;49.238;6.698;2023-08-24T12:56:24;98863.38;;;28.45;55.39
9899;BME280;4988;49.238;6.698;2023-08-24T12:58:49;98893.53;;;28.30;56.84
9899;BME280;4988;49.238;6.698;2023-08-24T13:01:14;98925.47;;;28.08;57.25
9899;BME280;4988;49.238;6.698;2023-08-24T13:03:40;98937.91;;;27.81;60.11
9899;BME280;4988;49.238;6.698;2023-08-24T13:06:08;98929.47;;;27.52;63.62
9899;BME280;4988;49.238;6.698;2023-08-24T13:08:33;98922.72;;;27.40;65.41
9899;BME280;4988;49.238;6.698;2023-08-24T13:10:59;98921.59;;;27.11;66.66
9899;BME280;4988;49.238;6.698;2023-08-24T13:13:24;98908.00;;;26.79;67.08
9899;BME280;4988;49.238;6.698;2023-08-24T13:15:50;98885.16;;;26.72;69.38
9899;BME280;4988;49.238;6.698;2023-08-24T13:18:16;98883.38;;;26.56;69.93
9899;BME280;4988;49.238;6.698;2023-08-24T13:20:41;98888.88;;;26.48;71.50
9899;BME280;4988;49.238;6.698;2023-08-24T13:23:07;98867.47;;;26.37;74.56
9899;BME280;4988;49.238;6.698;2023-08-24T13:25:32;98816.59;;;26.12;77.80
9899;BME280;4988;49.238;6.698;2023-08-24T13:27:58;98763.69;;;25.82;80.65
9899;BME280;4988;49.238;6.698;2023-08-24T13:30:23;98726.38;;;25.51;82.75
9899;BME280;4988;49.238;6.698;2023-08-24T13:32:48;98730.69;;;25.29;84.61